Time;durP1;ratioP1;P1;durP2;ratioP2;P2;SDS_P1;SDS_P2;PMS_P1;PMS_P2;Temp;Humidity;BMP_temperature;BMP_pressure;BME280_temperature;BME280_humidity;BME280_pressure;Samples;Min_cycle;Max_cycle;Signal;HPM_P1;HPM_P2
2022/12/16 00:00:35;;;;;;;38.38;21.08;;;2.60;70.30;;;;;;2344402;57;21054;-50
2022/12/16 00:03:02;;;;;;;38.40;21.70;;;2.60;70.40;;;;;;2344643;57;21099;-50
2022/12/16 00:05:30;;;;;;;42.53;22.42;;;2.60;70.40;;;;;;2343774;57;21110;-49
2022/12/16 00:07:57;;;;;;;38.80;21.80;;;2.60;70.40;;;;;;2344598;57;21062;-51
2022/12/16 00:10:24;;;;;;;39.17;21.27;;;2.60;70.50;;;;;;2344569;57;21533;-48
2022/12/16 00:12:51;;;;;;;36.22;20.67;;;2.60;70.50;;;;;;2344715;57;21038;-49
2022/12/16 00:15:18;;;;;;;38.83;22.27;;;2.70;70.50;;;;;;2344387;57;21121;-50
2022/12/16 00:17:45;;;;;;;37.10;20.90;;;2.70;70.60;;;;;;2344853;57;21042;-48
2022/12/16 00:20:13;;;;;;;38.60;21.23;;;2.70;70.40;;;;;;2344790;57;21034;-49
2022/12/16 00:22:40;;;;;;;44.40;22.87;;;2.70;70.40;;;;;;2344023;57;21038;-50
2022/12/16 00:25:09;;;;;;;40.30;23.38;;;2.70;70.40;;;;;;2344638;57;21026;-51
2022/12/16 00:27:36;;;;;;;47.83;23.20;;;2.80;70.40;;;;;;2344642;57;21061;-49
2022/12/16 00:30:04;;;;;;;38.45;21.42;;;2.80;70.20;;;;;;2344390;57;21102;-48
2022/12/16 00:32:31;;;;;;;36.05;20.98;;;2.80;70.10;;;;;;2344726;57;21050;-48
2022/12/16 00:34:59;;;;;;;35.45;20.90;;;2.80;69.90;;;;;;2345106;57;21747;-50
2022/12/16 00:37:27;;;;;;;38.63;20.55;;;2.80;70.20;;;;;;2344854;57;21042;-47
2022/12/16 00:39:54;;;;;;;38.63;21.70;;;2.80;70.00;;;;;;2344778;57;21121;-49
2022/12/16 00:42:21;;;;;;;37.58;20.77;;;2.80;70.20;;;;;;2343902;57;21381;-49
2022/12/16 00:44:48;;;;;;;36.22;21.17;;;2.80;70.20;;;;;;2344724;57;21662;-50
2022/12/16 00:47:15;;;;;;;38.22;20.52;;;2.90;70.20;;;;;;2344447;57;21038;-48
2022/12/16 00:49:42;;;;;;;34.80;21.12;;;2.80;70.00;;;;;;2344380;57;21050;-52
2022/12/16 00:52:10;;;;;;;37.17;20.52;;;2.80;70.00;;;;;;2344227;57;21042;-50
2022/12/16 00:54:37;;;;;;;36.00;20.98;;;2.90;70.10;;;;;;2344781;57;21522;-49
2022/12/16 00:57:04;;;;;;;41.50;23.70;;;2.90;70.40;;;;;;2344305;57;21049;-48
2022/12/16 00:59:31;;;;;;;35.30;20.85;;;2.90;70.00;;;;;;2343469;57;21042;-51
2022/12/16 01:01:58;;;;;;;39.47;21.75;;;2.90;70.00;;;;;;2343068;57;21741;-49
2022/12/16 01:04:25;;;;;;;38.15;22.00;;;2.90;70.00;;;;;;2343871;57;21089;-51
2022/12/16 01:06:53;;;;;;;43.83;22.93;;;2.90;70.00;;;;;;2343222;57;21101;-49
2022/12/16 01:09:21;;;;;;;37.83;21.23;;;2.90;69.90;;;;;;2343681;57;21061;-51
2022/12/16 01:11:48;;;;;;;43.67;23.38;;;3.00;69.90;;;;;;2343379;57;21054;-50
2022/12/16 01:14:15;;;;;;;35.88;20.98;;;3.00;69.80;;;;;;2343555;57;21640;-48
2022/12/16 01:16:42;;;;;;;33.33;19.43;;;2.90;69.80;;;;;;2343700;57;21121;-48
2022/12/16 01:19:09;;;;;;;33.42;18.70;;;3.00;69.90;;;;;;2343758;57;21113;-52
2022/12/16 01:21:37;;;;;;;33.72;19.48;;;2.90;69.90;;;;;;2343113;57;21641;-48
2022/12/16 01:24:05;;;;;;;37.28;21.58;;;2.90;69.90;;;;;;2344422;57;21541;-50
2022/12/16 01:26:33;;;;;;;39.67;22.98;;;2.90;70.70;;;;;;2344155;57;21129;-51
2022/12/16 01:29:00;;;;;;;40.28;21.55;;;3.00;70.00;;;;;;2344022;57;21062;-47
2022/12/16 01:31:27;;;;;;;34.55;20.23;;;3.00;69.90;;;;;;2343262;57;21340;-47
2022/12/16 01:33:54;;;;;;;42.42;21.77;;;2.90;69.80;;;;;;2343429;57;21598;-51
2022/12/16 01:36:22;;;;;;;43.75;23.80;;;2.90;69.90;;;;;;2343364;57;21022;-49
2022/12/16 01:38:49;;;;;;;39.30;21.33;;;3.00;70.00;;;;;;2343521;57;21533;-50
2022/12/16 01:41:17;;;;;;;35.03;20.52;;;2.90;69.90;;;;;;2343115;57;21054;-50
2022/12/16 01:43:46;;;;;;;40.78;20.40;;;3.00;69.90;;;;;;2343759;57;21738;-49
2022/12/16 01:46:18;;;;;;;32.03;17.95;;;3.00;70.00;;;;;;2343801;57;21494;-52
2022/12/16 01:48:50;;;;;;;40.83;20.10;;;3.00;69.90;;;;;;2345314;57;21093;-50
2022/12/16 01:51:25;;;;;;;33.35;20.08;;;3.00;69.90;;;;;;2344640;57;21042;-51
2022/12/16 01:53:57;;;;;;;36.38;21.20;;;3.00;69.70;;;;;;2344972;57;21037;-50
2022/12/16 01:56:26;;;;;;;36.80;20.77;;;3.00;69.40;;;;;;2345441;57;21065;-51
2022/12/16 01:58:54;;;;;;;38.20;21.35;;;3.00;69.30;;;;;;2345572;57;21077;-47
2022/12/16 02:01:22;;;;;;;35.33;19.70;;;3.00;69.30;;;;;;2344125;57;21284;-47
2022/12/16 02:03:53;;;;;;;43.63;21.62;;;3.00;69.40;;;;;;2343128;57;21030;-47
2022/12/16 02:06:20;;;;;;;40.10;22.60;;;3.00;69.40;;;;;;2343322;57;21054;-50
2022/12/16 02:08:54;;;;;;;40.58;22.17;;;3.00;69.30;;;;;;2343315;57;21133;-47
2022/12/16 02:11:35;;;;;;;42.72;22.30;;;2.90;69.10;;;;;;2343536;57;21049;-48
2022/12/16 02:17:12;;;;;;;38.58;19.50;;;3.00;68.80;;;;;;2355221;57;22575;-47
2022/12/16 02:20:10;;;;;;;39.92;21.58;;;2.90;68.70;;;;;;2346353;57;21049;-48
2022/12/16 02:22:59;;;;;;;43.97;23.25;;;2.90;68.70;;;;;;2345005;57;21605;-47
2022/12/16 02:25:46;;;;;;;38.88;21.77;;;2.90;68.70;;;;;;2343706;57;21622;-47
2022/12/16 02:28:23;;;;;;;37.28;21.73;;;2.90;68.50;;;;;;2344963;57;21037;-47
2022/12/16 02:31:04;;;;;;;37.45;20.55;;;2.80;68.50;;;;;;2344887;57;21613;-48
2022/12/16 02:33:47;;;;;;;40.70;21.80;;;2.80;68.70;;;;;;2344407;57;22174;-48
2022/12/16 02:36:24;;;;;;;36.22;21.85;;;2.80;68.90;;;;;;2342896;57;21512;-48
2022/12/16 02:41:41;;;;;;;42.72;21.80;;;2.70;68.80;;;;;;2349449;57;22615;-48
2022/12/16 02:44:10;;;;;;;37.78;21.60;;;2.70;69.50;;;;;;2346265;57;22184;-48
2022/12/16 02:46:40;;;;;;;43.38;22.25;;;2.70;68.70;;;;;;2345412;57;21046;-49
2022/12/16 02:49:09;;;;;;;42.17;22.48;;;2.60;68.50;;;;;;2347860;57;21082;-47
2022/12/16 02:51:37;;;;;;;42.33;22.50;;;2.50;68.50;;;;;;2347697;57;21566;-50
2022/12/16 02:54:06;;;;;;;40.75;20.75;;;2.40;68.30;;;;;;2346283;57;21037;-47
2022/12/16 02:56:46;;;;;;;39.83;21.15;;;2.40;68.30;;;;;;2346063;57;21236;-47
2022/12/16 02:59:23;;;;;;;32.90;19.73;;;2.30;68.40;;;;;;2345764;57;21636;-48
2022/12/16 03:01:54;;;;;;;42.25;22.08;;;2.30;68.40;;;;;;2344710;57;21647;-46
2022/12/16 03:04:29;;;;;;;38.28;21.45;;;2.20;68.50;;;;;;2345823;57;21688;-47
2022/12/16 03:06:59;;;;;;;37.80;20.00;;;2.20;68.70;;;;;;2346539;57;21620;-47
2022/12/16 03:09:31;;;;;;;40.05;21.20;;;2.20;68.80;;;;;;2346588;57;21517;-46
2022/12/16 03:12:01;;;;;;;34.93;20.63;;;2.20;68.30;;;;;;2346684;57;21132;-47
2022/12/16 03:14:33;;;;;;;37.13;19.27;;;2.20;69.10;;;;;;2345760;57;21271;-48
2022/12/16 03:17:00;;;;;;;35.50;19.03;;;2.20;69.20;;;;;;2345918;57;21284;-48
2022/12/16 03:19:30;;;;;;;37.97;20.42;;;2.10;69.10;;;;;;2346414;57;21693;-47
2022/12/16 03:22:06;;;;;;;37.53;20.75;;;2.20;69.20;;;;;;2346187;57;21526;-52
2022/12/16 03:24:34;;;;;;;43.78;23.65;;;2.10;69.00;;;;;;2346457;57;21050;-48
2022/12/16 03:27:09;;;;;;;41.97;21.90;;;2.10;68.80;;;;;;2345306;57;21112;-51
2022/12/16 03:29:42;;;;;;;39.20;21.10;;;2.10;68.30;;;;;;2345609;57;21030;-48
2022/12/16 03:32:17;;;;;;;37.13;21.23;;;2.10;68.10;;;;;;2347269;57;21105;-47
2022/12/16 03:34:50;;;;;;;40.17;21.92;;;2.10;68.00;;;;;;2347761;57;21570;-47
2022/12/16 03:37:21;;;;;;;36.58;20.40;;;2.00;68.00;;;;;;2347943;57;21006;-48
2022/12/16 03:39:51;;;;;;;40.88;19.92;;;2.00;67.90;;;;;;2346938;57;21010;-51
2022/12/16 03:42:18;;;;;;;46.47;24.23;;;2.00;67.70;;;;;;2346800;57;21022;-51
2022/12/16 03:44:47;;;;;;;43.35;23.08;;;1.90;68.20;;;;;;2347080;57;21057;-48
2022/12/16 03:47:14;;;;;;;39.53;20.37;;;1.90;67.80;;;;;;2345592;57;22231;-49
2022/12/16 03:49:41;;;;;;;38.72;20.23;;;1.90;68.00;;;;;;2346180;57;21517;-49
2022/12/16 03:52:09;;;;;;;41.90;20.88;;;1.80;68.00;;;;;;2345471;57;21042;-49
2022/12/16 03:54:36;;;;;;;44.80;23.00;;;1.80;68.10;;;;;;2345464;57;21589;-48
2022/12/16 03:57:03;;;;;;;41.67;22.70;;;1.80;68.20;;;;;;2345866;57;21038;-49
2022/12/16 03:59:30;;;;;;;40.28;21.52;;;1.80;68.20;;;;;;2345104;57;21050;-51
2022/12/16 04:01:58;;;;;;;43.42;22.77;;;1.80;68.10;;;;;;2345560;57;21449;-47
2022/12/16 04:04:26;;;;;;;36.83;20.98;;;1.70;67.70;;;;;;2344361;57;21050;-51
2022/12/16 04:09:40;;;;;;;43.55;24.33;;;1.70;67.80;;;;;;2591418;53;21022;-49
2022/12/16 04:26:00;;;;;;;44.80;22.13;;;1.30;67.70;;;;;;2344609;57;21002;-47
2022/12/16 04:28:27;;;;;;;40.92;21.70;;;1.20;67.80;;;;;;2345298;57;21613;-50
2022/12/16 04:30:55;;;;;;;38.95;21.30;;;1.10;68.20;;;;;;2344087;57;21053;-47
